Ana Sayfa
METAR-TAF:

METAR-TAF

Havaalanları :

Pocono Mountains Municipal Airport

Mount Pocono, Pensilvanya, Amerika Birleşik Devletleri

Enlem: 41-08-20N, Boylam: 075-23-46W, yükseklik: 584 m

Güncel hava durumu gözlemi

Rapor saat 08:53 UTC de 40 dakika önce yapıldı.
Sakin rüzgar
Sıcaklık 9°C
Nem 100%
Basınç 1023 hPa
Görüş mesafesi: 0.8 km
sis

METAR: KMPO 250853Z AUTO 00000KT 1/2SM FG VV002 09/09 A3021 RMK AO2 SLP228 T00940094 58001 $

Saat: 05:33 (09:33 UTC)


TAF: eksik

4.000'den fazla havaalanı için hava durumu gözlemleri ve tahminleri (METAR ve TAF raporları).

Kullanılabilir istasyonlar harita üzerinde sarı ve kırmızı noktalarla gösterilir.

İstasyonun adını görmek için fareyi noktanın üzerinde gezdirin.

Sonrasında hava gözlem ve tahminlerini görmek için tıklayın.

Haritayı değiştirmek için: yaklaştırmak için siyah artı işaretli yeşil düğmeye ve uzaklaştırmak için de eksi işaretli düğmeye hızla tıklayın; bitişik haritalar için yeşil okları kullanın.


METAR-TAF: